Meteo Giornale » Osservazioni meteo Arabia Saudita » King Fahd Intl
ore: 01:00 - Osservazioni Meteo King Fahd Intl
Lat. 26° 28' N Lon. 49° 48' E Alt. 22 metri s.l.m.
31 °C
Sereno
Temp. 24 Ore
30 °C
41 °C
Nord-Ovest
13 Km/h
Dew point 13 °C
Umidità 33 %
Visibilità 10 Km
Il sole sorge alle ore 05:20
Il sole tramonta alle ore 18:00
| Data e Ora | Cielo e Fenomeni | T °C | DP °C | Um. % | Pres. hPa | Vis. km | Vento km/h | |
|---|---|---|---|---|---|---|---|---|
| Oggi h: 01:00 | Sereno | 31 | 13 | 33 | 1001 | 10 | NO 13 | |
| Oggi h: 00:00 | Sereno | 31 | 14 | 35 | 1002 | 10 | O/NO 16.7 | |
| Ieri h: 23:00 | Sereno | 32 | 17 | 40 | 1003 | 10 | NO 14.8 | |
| Ieri h: 22:00 | Sereno | 32 | 16 | 38 | 1003 | 10 | NO 13 | |
| Ieri h: 21:00 | Sereno | 35 | 14 | 28 | 1003 | 10 | N/NO 16.7 | |
| Ieri h: 20:00 | Sereno | 35 | 16 | 32 | 1003 | 10 | N/NO 18.5 | |
| Ieri h: 19:00 | Sereno | 36 | 18 | 34 | 1002 | 10 | N 29.6 | |
| Ieri h: 18:00 | Sereno | 38 | 16 | 27 | 1002 | 10 | N 35.2 | |
| Ieri h: 17:00 | Sereno | 39 | 16 | 26 | 1002 | 10 | N 44.4 | |
| Ieri h: 16:00 | Sereno | 40 | 16 | 24 | 1002 | 8 | N 46.3 | |
| Ieri h: 15:00 | Sereno | 41 | 16 | 23 | 1002 | 8 | N 42.6 | |
| Ieri h: 14:00 | Sereno | 41 | 19 | 28 | 1002 | 8 | N 42.6 | |
| Ieri h: 13:00 | Sereno | 40 | 21 | 33 | 1002 | 8 | N 44.4 | |
| Ieri h: 12:00 | Sereno | 41 | 21 | 31 | 1002 | 10 | N 40.7 | |
| Ieri h: 11:00 | Sereno | 41 | 19 | 28 | 1002 | 10 | N 46.3 | |
| Ieri h: 10:00 | Sereno | 40 | 21 | 33 | 1003 | 10 | N 44.4 | |
| Ieri h: 09:00 | Sereno | 39 | 21 | 35 | 1003 | 10 | N 38.8 | |
| Ieri h: 08:00 | Sereno | 37 | 23 | 44 | 1002 | 10 | N 33.3 | |
| Ieri h: 07:00 | Sereno | 32 | 22 | 55 | 1002 | 10 | NO 14.8 | |
| Ieri h: 06:00 | Sereno | 30 | 21 | 58 | 1002 | 10 | NO 9.3 | |
| Ieri h: 05:00 | Sereno | 31 | 21 | 55 | 1001 | 10 | N 11.1 | |
| Ieri h: 04:00 | Sereno | 32 | 21 | 52 | 1001 | 10 | N/NO 14.8 | |
| Ieri h: 03:00 | Sereno | 32 | 19 | 46 | 1000 | 10 | NO 22.2 | |
| Ieri h: 02:00 | Sereno | 32 | 16 | 38 | 1000 | 10 | NO 18.5 | |



